Time;durP1;ratioP1;P1;durP2;ratioP2;P2;SDS_P1;SDS_P2;PMS_P1;PMS_P2;Temp;Humidity;BMP_temperature;BMP_pressure;BME280_temperature;BME280_humidity;BME280_pressure;Samples;Min_cycle;Max_cycle;Signal;HPM_P1;HPM_P2
2023/07/05 00:01:14;;;;;;;6.07;2.70;;;13.10;1.00;;;;;;5091296;28;20166;-69
2023/07/05 00:03:40;;;;;;;5.30;2.70;;;13.10;1.00;;;;;;5082025;28;20518;-68
2023/07/05 00:06:06;;;;;;;4.60;3.27;;;13.10;1.00;;;;;;5071697;28;20429;-69
2023/07/05 00:08:36;;;;;;;4.60;3.10;;;13.10;1.00;;;;;;5071681;28;20536;-69
2023/07/05 00:11:07;;;;;;;5.97;2.63;;;13.00;1.00;;;;;;5071392;28;20864;-71
2023/07/05 00:13:33;;;;;;;5.17;2.70;;;13.00;1.00;;;;;;5072152;28;20422;-69
2023/07/05 00:16:00;;;;;;;5.63;3.40;;;13.00;1.00;;;;;;5071661;28;20398;-72
2023/07/05 00:18:26;;;;;;;9.53;3.60;;;13.00;1.00;;;;;;5078164;28;20447;-69
2023/07/05 00:20:53;;;;;;;5.00;3.13;;;13.00;1.00;;;;;;5073951;28;20375;-72
2023/07/05 00:23:19;;;;;;;4.50;3.70;;;13.00;1.00;;;;;;5082595;28;20504;-71
2023/07/05 00:25:45;;;;;;;3.90;3.30;;;13.00;1.00;;;;;;5057237;28;20912;-68
2023/07/05 00:28:11;;;;;;;3.90;3.50;;;13.00;1.00;;;;;;5076190;28;20635;-70
2023/07/05 00:30:36;;;;;;;7.50;3.00;;;13.00;1.00;;;;;;5074606;28;20166;-68
2023/07/05 00:33:02;;;;;;;5.87;3.77;;;13.00;1.00;;;;;;5077931;28;20815;-70
2023/07/05 00:35:28;;;;;;;4.90;3.20;;;13.00;1.00;;;;;;5075437;28;20169;-71
2023/07/05 00:37:54;;;;;;;9.93;4.20;;;13.00;1.00;;;;;;5085288;28;20436;-69
2023/07/05 00:40:20;;;;;;;5.30;3.00;;;13.00;1.00;;;;;;5074248;28;20178;-69
2023/07/05 00:42:46;;;;;;;3.53;3.23;;;13.00;1.00;;;;;;5075263;28;20523;-68
2023/07/05 00:45:12;;;;;;;3.67;3.30;;;13.00;1.00;;;;;;5075293;28;20437;-69
2023/07/05 00:47:41;;;;;;;4.87;4.23;;;13.00;1.00;;;;;;5093613;28;20408;-72
2023/07/05 00:50:26;;;;;;;3.70;3.13;;;13.10;1.00;;;;;;5074810;28;20402;-69
2023/07/05 00:52:54;;;;;;;4.90;3.13;;;13.10;1.00;;;;;;5084841;28;20430;-71
2023/07/05 00:55:21;;;;;;;3.30;3.00;;;13.10;1.00;;;;;;5056007;28;20915;-72
2023/07/05 00:57:47;;;;;;;3.20;2.93;;;13.10;1.00;;;;;;5056959;28;20982;-68
2023/07/05 01:00:17;;;;;;;8.47;2.90;;;13.10;1.00;;;;;;5074125;28;20431;-68
2023/07/05 01:02:46;;;;;;;5.53;4.50;;;13.10;1.00;;;;;;5076524;28;20924;-68
2023/07/05 01:05:13;;;;;;;3.10;2.80;;;13.10;1.00;;;;;;5055570;28;20441;-69
2023/07/05 01:07:38;;;;;;;5.00;2.67;;;13.10;1.00;;;;;;5056937;28;20784;-68
2023/07/05 01:10:07;;;;;;;3.97;2.93;;;13.10;1.00;;;;;;5073664;28;20497;-71
2023/07/05 01:13:02;;;;;;;6.13;3.73;;;13.20;1.00;;;;;;5073908;28;20383;-72
2023/07/05 01:15:50;;;;;;;3.40;3.10;;;13.20;1.00;;;;;;5056722;28;20424;-68
2023/07/05 01:18:26;;;;;;;3.30;3.00;;;13.30;1.00;;;;;;5079933;28;20944;-69
2023/07/05 01:21:13;;;;;;;4.63;3.07;;;13.30;1.00;;;;;;5073856;28;20487;-72
2023/07/05 01:23:59;;;;;;;8.30;3.33;;;13.40;1.00;;;;;;5055900;28;20479;-70
2023/07/05 01:26:27;;;;;;;4.43;3.60;;;13.40;1.00;;;;;;5074417;28;20435;-71
2023/07/05 01:29:22;;;;;;;4.63;3.93;;;13.40;1.00;;;;;;5074478;28;20375;-72
2023/07/05 01:32:10;;;;;;;4.33;3.40;;;13.50;1.00;;;;;;5072331;28;20404;-72
2023/07/05 01:34:54;;;;;;;5.37;4.10;;;13.50;1.00;;;;;;5075618;28;20495;-68
2023/07/05 01:37:40;;;;;;;5.33;3.50;;;13.50;1.00;;;;;;5056495;28;20409;-71
2023/07/05 01:40:34;;;;;;;4.00;3.67;;;13.50;1.00;;;;;;5071270;28;20742;-69
2023/07/05 01:43:09;;;;;;;8.77;3.87;;;13.60;1.00;;;;;;5073192;28;20395;-71
2023/07/05 01:45:51;;;;;;;4.17;3.73;;;13.60;1.00;;;;;;5090531;28;20454;-72
2023/07/05 01:48:43;;;;;;;4.07;3.70;;;13.60;1.00;;;;;;5091603;28;20792;-72
2023/07/05 01:51:38;;;;;;;6.30;3.93;;;13.60;1.00;;;;;;5053872;28;20411;-68
2023/07/05 01:54:16;;;;;;;6.53;3.50;;;13.60;1.00;;;;;;5072180;28;20637;-71
2023/07/05 01:56:53;;;;;;;8.50;3.90;;;13.70;1.00;;;;;;5073710;28;20375;-68
2023/07/05 01:59:22;;;;;;;4.93;3.30;;;13.70;1.00;;;;;;5072819;28;20416;-71
2023/07/05 02:01:51;;;;;;;8.33;4.07;;;13.60;1.00;;;;;;5061592;28;20562;-68
2023/07/05 02:04:20;;;;;;;5.80;3.20;;;13.70;1.00;;;;;;5073687;28;20508;-72
2023/07/05 02:06:46;;;;;;;6.13;4.63;;;13.70;1.00;;;;;;5073635;28;20417;-70
2023/07/05 02:09:12;;;;;;;11.00;3.93;;;13.70;1.00;;;;;;5072305;28;20439;-68
2023/07/05 02:11:38;;;;;;;11.50;3.47;;;13.70;1.00;;;;;;5072570;28;20400;-71
2023/07/05 02:14:04;;;;;;;10.80;3.77;;;13.70;1.00;;;;;;5073402;28;20460;-72
2023/07/05 02:16:30;;;;;;;5.27;4.80;;;13.70;1.00;;;;;;5073293;28;20186;-72
2023/07/05 02:18:56;;;;;;;4.20;3.53;;;13.70;1.00;;;;;;5089700;28;20826;-68
2023/07/05 02:21:22;;;;;;;5.20;2.70;;;13.80;1.00;;;;;;5074966;28;20418;-71
2023/07/05 02:23:48;;;;;;;5.00;3.13;;;13.80;1.00;;;;;;5092774;28;20276;-68
2023/07/05 02:26:13;;;;;;;6.00;3.10;;;13.70;1.00;;;;;;5075442;28;20484;-71
2023/07/05 02:28:39;;;;;;;4.50;3.33;;;13.80;1.00;;;;;;5092772;28;20877;-71
2023/07/05 02:31:11;;;;;;;6.80;3.00;;;13.80;1.00;;;;;;5092490;28;20168;-68
2023/07/05 02:33:38;;;;;;;3.43;2.67;;;13.80;1.00;;;;;;5075341;28;20217;-68
2023/07/05 02:36:09;;;;;;;7.10;3.73;;;13.80;1.00;;;;;;5072003;28;20371;-71
2023/07/05 02:38:36;;;;;;;3.70;2.90;;;13.80;1.00;;;;;;5078748;28;20507;-68
2023/07/05 02:41:01;;;;;;;4.87;2.93;;;13.80;1.00;;;;;;5054332;28;20496;-69
2023/07/05 02:43:27;;;;;;;8.47;3.53;;;13.80;1.00;;;;;;5054695;28;20534;-68
2023/07/05 02:45:53;;;;;;;9.00;3.27;;;13.80;1.00;;;;;;5055091;28;20170;-69
2023/07/05 02:48:19;;;;;;;5.80;3.03;;;13.90;1.00;;;;;;5084751;28;20181;-72
2023/07/05 02:50:44;;;;;;;7.20;4.33;;;13.80;1.00;;;;;;5092365;28;20196;-70
2023/07/05 02:53:10;;;;;;;4.63;3.27;;;13.90;1.00;;;;;;5092443;28;20243;-71
2023/07/05 02:55:38;;;;;;;10.43;4.30;;;13.80;1.00;;;;;;5092304;28;20212;-72
2023/07/05 02:58:04;;;;;;;8.57;4.27;;;13.80;1.00;;;;;;5073552;28;20182;-71
2023/07/05 03:00:33;;;;;;;3.80;3.40;;;13.90;1.00;;;;;;5054149;28;20428;-70
2023/07/05 03:02:59;;;;;;;5.83;3.13;;;13.90;1.00;;;;;;5075479;28;20185;-72
2023/07/05 03:05:25;;;;;;;4.47;3.33;;;13.90;1.00;;;;;;5072120;28;20817;-70
2023/07/05 03:07:51;;;;;;;7.57;3.30;;;13.90;1.00;;;;;;5072303;28;20639;-69
2023/07/05 03:10:16;;;;;;;5.83;3.17;;;13.90;1.00;;;;;;5054275;28;20177;-68
2023/07/05 03:12:42;;;;;;;11.40;3.87;;;13.90;1.00;;;;;;5055029;28;20194;-70
2023/07/05 03:15:08;;;;;;;8.10;3.43;;;13.90;1.00;;;;;;5071681;28;20190;-68
2023/07/05 03:17:34;;;;;;;4.47;3.00;;;13.90;1.00;;;;;;5065350;28;20181;-69
2023/07/05 03:20:39;;;;;;;3.27;2.97;;;13.90;1.00;;;;;;5092431;28;20380;-71
2023/07/05 03:23:15;;;;;;;4.63;4.10;;;13.90;1.00;;;;;;5068421;28;20513;-72
2023/07/05 03:25:41;;;;;;;5.20;4.17;;;13.90;1.00;;;;;;5072655;28;20400;-72
2023/07/05 03:28:07;;;;;;;4.87;3.90;;;13.90;1.00;;;;;;5072651;28;20400;-71
2023/07/05 03:30:35;;;;;;;5.93;4.07;;;14.00;1.00;;;;;;5053652;28;20412;-71
2023/07/05 03:33:01;;;;;;;7.17;3.43;;;14.00;1.00;;;;;;5072052;28;20471;-70
2023/07/05 03:35:27;;;;;;;7.83;3.67;;;14.00;1.00;;;;;;5075877;28;20404;-69
2023/07/05 03:37:53;;;;;;;6.43;4.37;;;14.00;1.00;;;;;;5092110;28;20379;-69
2023/07/05 03:40:18;;;;;;;5.83;4.60;;;14.00;1.00;;;;;;5071446;28;20162;-69
2023/07/05 03:42:47;;;;;;;6.33;3.90;;;14.00;1.00;;;;;;5071682;28;20439;-70
2023/07/05 03:45:13;;;;;;;6.07;4.00;;;14.00;1.00;;;;;;5072887;28;20241;-69
2023/07/05 03:47:39;;;;;;;8.93;4.53;;;14.00;1.00;;;;;;5079412;28;20484;-72
2023/07/05 03:50:06;;;;;;;7.47;3.73;;;14.00;1.00;;;;;;5091510;28;20408;-73
2023/07/05 03:52:32;;;;;;;4.20;3.80;;;14.00;1.00;;;;;;5091918;28;20180;-69
2023/07/05 03:54:58;;;;;;;5.10;4.63;;;14.00;1.00;;;;;;5096451;28;20504;-69
2023/07/05 03:57:24;;;;;;;5.23;4.00;;;14.00;1.00;;;;;;5096400;28;20424;-69
2023/07/05 03:59:50;;;;;;;4.43;3.77;;;13.90;1.00;;;;;;5093711;28;20455;-70
2023/07/05 04:02:16;;;;;;;8.10;4.10;;;13.90;1.00;;;;;;5087579;28;20398;-69
2023/07/05 04:04:44;;;;;;;5.03;4.63;;;13.90;1.00;;;;;;5075779;28;20217;-69
2023/07/05 04:07:10;;;;;;;7.40;4.47;;;13.90;1.00;;;;;;5076005;28;20400;-69
2023/07/05 04:09:36;;;;;;;7.40;4.30;;;13.90;1.00;;;;;;5075222;28;20408;-69
2023/07/05 04:12:02;;;;;;;4.90;3.90;;;14.00;1.00;;;;;;5056910;28;20423;-71
2023/07/05 04:14:28;;;;;;;4.23;3.90;;;14.00;1.00;;;;;;5084872;28;20514;-69
2023/07/05 04:16:53;;;;;;;9.90;5.17;;;14.00;1.00;;;;;;5076533;28;20204;-71
2023/07/05 04:19:19;;;;;;;11.17;4.90;;;14.00;1.00;;;;;;5094739;28;20458;-69
2023/07/05 04:21:45;;;;;;;6.90;4.50;;;14.10;1.00;;;;;;5066383;28;20286;-69
2023/07/05 04:24:11;;;;;;;6.37;4.77;;;14.10;1.00;;;;;;5075948;28;20428;-72
2023/07/05 04:26:37;;;;;;;5.63;5.13;;;14.10;1.00;;;;;;5057888;28;20178;-71
2023/07/05 04:29:03;;;;;;;5.40;4.90;;;14.10;1.00;;;;;;5074739;28;20481;-72
2023/07/05 04:31:30;;;;;;;5.97;4.40;;;14.10;1.00;;;;;;5055983;28;20439;-73
2023/07/05 04:33:57;;;;;;;7.73;4.60;;;14.10;1.00;;;;;;5093077;28;20201;-72
2023/07/05 04:36:25;;;;;;;5.80;3.97;;;14.20;1.00;;;;;;5086395;28;20415;-72
2023/07/05 04:38:50;;;;;;;6.33;5.13;;;14.20;1.00;;;;;;5074380;28;20416;-70
2023/07/05 04:41:17;;;;;;;5.57;4.77;;;14.30;1.00;;;;;;5074504;28;20401;-70
2023/07/05 04:43:43;;;;;;;9.40;4.93;;;14.30;1.00;;;;;;5075276;28;20425;-72
2023/07/05 04:46:09;;;;;;;7.43;5.47;;;14.20;1.00;;;;;;5083513;28;20419;-74
2023/07/05 04:48:34;;;;;;;13.03;4.60;;;14.20;1.00;;;;;;5072090;28;20434;-74
2023/07/05 04:51:16;;;;;;;5.63;4.67;;;14.20;1.00;;;;;;5094565;28;20400;-71
2023/07/05 04:53:42;;;;;;;10.17;6.20;;;14.20;1.00;;;;;;5075066;28;20209;-71
2023/07/05 04:56:50;;;;;;;6.00;5.50;;;14.20;1.00;;;;;;5074031;28;20387;-71
2023/07/05 05:02:37;;;;;;;9.60;5.90;;;14.20;1.00;;;;;;5074911;28;20501;-71
2023/07/05 05:05:05;;;;;;;7.90;5.30;;;14.10;1.00;;;;;;5079428;28;20547;-73
2023/07/05 05:07:31;;;;;;;9.57;5.10;;;14.10;1.00;;;;;;5084916;28;20498;-73
2023/07/05 05:09:58;;;;;;;8.23;5.90;;;14.00;1.00;;;;;;5059291;28;20432;-73
2023/07/05 05:12:24;;;;;;;9.40;5.83;;;13.90;22.10;;;;;;5054990;28;20839;-74
2023/07/05 05:14:50;;;;;;;9.13;6.50;;;13.90;50.90;;;;;;5074426;28;20440;-73
2023/07/05 05:17:16;;;;;;;8.60;5.90;;;13.90;74.80;;;;;;5068637;28;20469;-75
2023/07/05 05:19:44;;;;;;;5.93;5.33;;;13.90;94.60;;;;;;5094802;28;20404;-76
2023/07/05 05:22:11;;;;;;;10.90;5.93;;;13.90;93.50;;;;;;5093045;28;20165;-76
2023/07/05 05:24:37;;;;;;;6.20;4.83;;;13.90;99.90;;;;;;5094705;28;20416;-70
2023/07/05 05:27:07;;;;;;;10.87;6.93;;;13.90;99.90;;;;;;5076911;28;20492;-70
2023/07/05 05:29:32;;;;;;;8.63;5.20;;;14.00;99.90;;;;;;5094701;28;20469;-68
2023/07/05 05:31:58;;;;;;;13.30;7.07;;;14.00;99.90;;;;;;5079587;28;20980;-68
2023/07/05 05:34:25;;;;;;;8.07;6.30;;;14.00;99.90;;;;;;5086197;28;20728;-75
2023/07/05 05:36:52;;;;;;;12.77;5.83;;;14.00;99.90;;;;;;5074600;28;20198;-73
2023/07/05 05:39:19;;;;;;;11.43;5.80;;;14.00;99.90;;;;;;5086359;28;20382;-71
2023/07/05 05:41:45;;;;;;;9.93;6.53;;;14.00;99.90;;;;;;5092748;28;20403;-73
2023/07/05 05:44:18;;;;;;;10.43;8.33;;;14.00;99.90;;;;;;5094328;28;20427;-72
2023/07/05 05:46:44;;;;;;;9.50;7.30;;;14.00;99.90;;;;;;5062870;28;20660;-73
2023/07/05 05:49:10;;;;;;;10.10;7.40;;;14.00;99.90;;;;;;5092091;28;20494;-78
2023/07/05 05:51:38;;;;;;;8.80;6.40;;;14.00;99.90;;;;;;5092527;28;20417;-77
2023/07/05 05:54:05;;;;;;;7.80;7.10;;;14.00;99.90;;;;;;5094292;28;20212;-73
2023/07/05 05:56:31;;;;;;;8.57;5.70;;;14.00;99.90;;;;;;5075949;28;20748;-69
2023/07/05 05:58:56;;;;;;;9.37;6.60;;;14.10;99.90;;;;;;5075447;28;20432;-78
2023/07/05 06:01:22;;;;;;;9.30;6.73;;;14.20;99.90;;;;;;5056866;28;20425;-70
2023/07/05 06:03:48;;;;;;;9.07;6.93;;;14.20;99.90;;;;;;5073183;28;20205;-69
2023/07/05 06:06:14;;;;;;;9.80;6.60;;;14.10;99.90;;;;;;5073724;28;20400;-77
2023/07/05 06:08:40;;;;;;;11.40;6.97;;;14.10;99.90;;;;;;5072764;28;20466;-79
2023/07/05 06:11:06;;;;;;;8.10;6.83;;;14.00;99.90;;;;;;5054709;28;20174;-75
2023/07/05 06:13:33;;;;;;;12.50;6.80;;;14.00;99.90;;;;;;5073555;28;20285;-75
2023/07/05 06:16:01;;;;;;;11.20;7.73;;;13.90;99.90;;;;;;5073897;28;20454;-78
2023/07/05 06:18:28;;;;;;;12.33;6.67;;;13.90;99.90;;;;;;5066799;28;20848;-78
2023/07/05 06:20:54;;;;;;;10.03;6.67;;;13.90;99.90;;;;;;5092788;28;20853;-69
2023/07/05 06:23:34;;;;;;;8.17;7.23;;;13.90;99.90;;;;;;5093546;28;20421;-77
2023/07/05 06:26:12;;;;;;;9.23;7.27;;;13.90;99.90;;;;;;5054197;28;20789;-79
2023/07/05 06:28:38;;;;;;;8.97;7.60;;;13.90;99.90;;;;;;5069108;28;20400;-71
2023/07/05 06:31:09;;;;;;;16.63;7.30;;;13.90;99.90;;;;;;5056506;28;20453;-77
2023/07/05 06:33:36;;;;;;;8.63;7.60;;;13.90;99.90;;;;;;5073225;28;20448;-69
2023/07/05 06:36:02;;;;;;;9.97;7.53;;;13.90;99.90;;;;;;5054347;28;20505;-75
2023/07/05 06:38:29;;;;;;;14.30;8.37;;;13.90;99.90;;;;;;5072727;28;20395;-69
2023/07/05 06:40:56;;;;;;;8.30;7.43;;;13.80;99.90;;;;;;5071869;28;20894;-77
2023/07/05 06:43:26;;;;;;;10.93;7.70;;;13.80;99.90;;;;;;5072806;28;20420;-72
2023/07/05 06:45:56;;;;;;;15.77;8.23;;;13.80;99.90;;;;;;5072566;28;20487;-69
2023/07/05 06:48:23;;;;;;;18.87;7.90;;;13.90;99.90;;;;;;5073087;28;20397;-69
2023/07/05 06:50:51;;;;;;;11.23;7.77;;;13.90;99.90;;;;;;5092220;28;20911;-69
2023/07/05 06:53:16;;;;;;;9.43;7.43;;;13.90;99.90;;;;;;5089668;28;20544;-72
2023/07/05 06:55:43;;;;;;;9.50;7.27;;;14.00;99.90;;;;;;5054869;28;20408;-73
2023/07/05 06:58:08;;;;;;;12.03;8.10;;;14.00;99.90;;;;;;5072199;28;20179;-69
2023/07/05 07:00:37;;;;;;;18.07;8.43;;;14.00;99.90;;;;;;5071248;28;20384;-73
2023/07/05 07:03:04;;;;;;;12.77;8.40;;;14.00;99.90;;;;;;5073359;28;20423;-72
2023/07/05 07:05:40;;;;;;;12.43;7.43;;;14.00;99.90;;;;;;5072837;28;20427;-80
2023/07/05 07:08:06;;;;;;;10.03;7.33;;;14.10;1.00;;;;;;5072759;28;20499;-75
2023/07/05 07:14:05;;;;;;;10.67;7.10;;;14.10;1.00;;;;;;4991087;28;20521;-79
2023/07/05 07:16:49;;;;;;;9.23;7.20;;;14.10;1.00;;;;;;5015295;28;20843;-75
2023/07/05 07:19:25;;;;;;;12.10;7.80;;;14.20;1.00;;;;;;5072181;28;20397;-68
2023/07/05 07:21:52;;;;;;;11.60;8.60;;;14.20;1.00;;;;;;5082769;28;20458;-77
2023/07/05 07:24:20;;;;;;;13.67;7.93;;;14.20;1.00;;;;;;5072624;28;20455;-69
2023/07/05 07:26:46;;;;;;;11.93;8.40;;;14.20;1.00;;;;;;5084916;28;20918;-70
2023/07/05 07:29:15;;;;;;;8.70;7.80;;;14.20;1.00;;;;;;5077813;28;20420;-69
2023/07/05 07:31:54;;;;;;;15.90;8.37;;;14.10;1.00;;;;;;5074310;28;20393;-71
2023/07/05 07:34:19;;;;;;;10.80;8.43;;;14.10;1.00;;;;;;5040920;28;20470;-73
2023/07/05 07:36:45;;;;;;;15.77;8.10;;;14.20;1.00;;;;;;5076570;28;20487;-74
2023/07/05 07:39:11;;;;;;;12.20;9.00;;;14.20;1.00;;;;;;5057712;28;20420;-76
2023/07/05 07:41:40;;;;;;;19.23;9.73;;;14.20;1.00;;;;;;5075571;28;20426;-75
2023/07/05 07:44:08;;;;;;;14.20;9.60;;;14.30;1.00;;;;;;5058323;28;20194;-69
2023/07/05 07:47:00;;;;;;;10.27;9.03;;;14.30;1.00;;;;;;5077905;28;20428;-76
2023/07/05 07:49:26;;;;;;;13.40;8.63;;;14.30;1.00;;;;;;5057460;28;20390;-69
2023/07/05 07:51:54;;;;;;;10.73;8.80;;;14.30;1.00;;;;;;5075258;28;20385;-75
2023/07/05 07:54:25;;;;;;;11.43;9.23;;;14.30;1.00;;;;;;5086245;28;21018;-77
2023/07/05 07:56:55;;;;;;;9.87;8.83;;;14.30;1.00;;;;;;5095638;28;20888;-72
2023/07/05 07:59:22;;;;;;;11.60;9.60;;;14.30;1.00;;;;;;5096424;28;20885;-73
2023/07/05 08:01:50;;;;;;;13.13;10.00;;;14.30;1.00;;;;;;5088413;28;20482;-68
2023/07/05 08:04:17;;;;;;;11.23;8.43;;;14.40;1.00;;;;;;5075768;28;20478;-69
2023/07/05 08:06:49;;;;;;;9.60;7.83;;;14.30;1.00;;;;;;5057889;28;20471;-68
2023/07/05 08:09:21;;;;;;;11.50;8.50;;;14.30;1.00;;;;;;5075507;28;20962;-67
2023/07/05 08:11:47;;;;;;;14.93;9.57;;;14.20;1.00;;;;;;5056938;28;20499;-67
2023/07/05 08:14:17;;;;;;;16.83;8.43;;;14.30;1.00;;;;;;5075896;28;20999;-68
2023/07/05 08:16:46;;;;;;;15.50;9.30;;;14.30;1.00;;;;;;5059591;28;20428;-73
2023/07/05 08:19:49;;;;;;;10.57;9.50;;;14.30;1.00;;;;;;5073454;28;20423;-72
2023/07/05 08:22:18;;;;;;;19.30;8.67;;;14.40;1.00;;;;;;5074681;28;20374;-71
2023/07/05 08:24:44;;;;;;;9.23;8.33;;;14.40;1.00;;;;;;5070069;28;20836;-68
2023/07/05 08:27:11;;;;;;;15.83;10.70;;;14.40;1.00;;;;;;5075248;28;20408;-73
2023/07/05 08:29:50;;;;;;;18.70;9.23;;;14.40;1.00;;;;;;5075645;28;20431;-75
2023/07/05 08:32:18;;;;;;;12.33;8.60;;;14.40;1.00;;;;;;5075966;28;20402;-68
2023/07/05 08:37:37;;;;;;;13.43;8.70;;;14.50;1.00;;;;;;4993890;28;20878;-75
2023/07/05 08:40:35;;;;;;;12.40;9.23;;;14.50;1.00;;;;;;5062628;28;20471;-75
2023/07/05 08:43:24;;;;;;;10.30;9.20;;;14.50;1.00;;;;;;5074754;28;20417;-71
2023/07/05 08:46:07;;;;;;;16.97;8.07;;;14.60;1.00;;;;;;5056925;28;20617;-67
2023/07/05 08:48:34;;;;;;;12.57;8.80;;;14.60;1.00;;;;;;5094104;28;20407;-76
2023/07/05 08:51:02;;;;;;;10.70;8.87;;;14.50;1.00;;;;;;5092889;28;20426;-67
2023/07/05 08:53:29;;;;;;;10.67;7.87;;;14.60;1.00;;;;;;5094438;28;20897;-72
2023/07/05 08:56:06;;;;;;;10.27;8.77;;;14.70;1.00;;;;;;5094985;28;20549;-73
2023/07/05 08:59:00;;;;;;;14.50;8.40;;;14.80;1.00;;;;;;5095339;28;20402;-69
2023/07/05 09:01:30;;;;;;;10.53;7.63;;;14.90;1.00;;;;;;5073733;28;20462;-72
2023/07/05 09:04:02;;;;;;;9.23;8.00;;;15.10;24.40;;;;;;5074584;28;20426;-74
2023/07/05 09:06:34;;;;;;;17.77;8.27;;;15.10;23.60;;;;;;5074972;28;20404;-68
2023/07/05 09:09:20;;;;;;;15.23;10.00;;;15.20;21.90;;;;;;5084549;28;20442;-72
2023/07/05 09:11:50;;;;;;;12.60;8.30;;;15.20;23.00;;;;;;5071405;28;20436;-69
2023/07/05 09:14:40;;;;;;;10.90;9.07;;;15.30;32.20;;;;;;5073914;28;20460;-67
2023/07/05 09:17:49;;;;;;;12.63;8.77;;;15.30;28.60;;;;;;5077010;28;20421;-69
2023/07/05 09:20:33;;;;;;;14.37;9.57;;;15.30;21.50;;;;;;5082228;28;20921;-67
2023/07/05 09:23:04;;;;;;;12.37;8.53;;;15.40;26.50;;;;;;5074528;28;20512;-68
2023/07/05 09:25:32;;;;;;;9.30;8.30;;;15.40;37.70;;;;;;5057031;28;20435;-74
2023/07/05 09:28:18;;;;;;;13.17;10.13;;;15.50;37.80;;;;;;5074538;28;20413;-76
2023/07/05 09:30:44;;;;;;;10.30;7.93;;;15.50;37.70;;;;;;5073459;28;20390;-67
2023/07/05 09:33:19;;;;;;;12.70;9.37;;;15.50;30.40;;;;;;5075190;28;20471;-75
2023/07/05 09:39:28;;;;;;;;;;;;;;;;;;;;;
2023/07/05 09:46:10;;;;;;;13.13;8.73;;;15.80;29.60;;;;;;4998749;28;20408;-66
2023/07/05 09:48:41;;;;;;;18.03;10.20;;;15.90;35.40;;;;;;5058444;28;20474;-74
2023/07/05 09:51:08;;;;;;;10.87;9.50;;;16.20;48.30;;;;;;5092477;28;20765;-75
2023/07/05 09:53:41;;;;;;;12.53;10.40;;;16.40;53.90;;;;;;5073481;28;20879;-67
2023/07/05 09:56:38;;;;;;;10.90;9.60;;;17.00;86.00;;;;;;5073835;28;20487;-69
2023/07/05 09:59:27;;;;;;;13.37;10.47;;;17.50;93.80;;;;;;5056452;28;20402;-70
2023/07/05 10:02:01;;;;;;;10.67;9.07;;;18.00;82.80;;;;;;5074604;28;20433;-72
2023/07/05 10:04:29;;;;;;;14.10;8.30;;;18.10;1.00;;;;;;5073532;28;21396;-74
2023/07/05 10:06:55;;;;;;;10.97;8.67;;;18.20;1.00;;;;;;5073767;28;20397;-69
2023/07/05 10:09:24;;;;;;;9.00;7.87;;;18.10;1.00;;;;;;5072944;28;20412;-69
2023/07/05 10:12:07;;;;;;;10.80;8.30;;;18.10;1.00;;;;;;5072609;28;20400;-74
2023/07/05 10:14:42;;;;;;;7.87;7.17;;;18.30;1.00;;;;;;5055818;28;20551;-73
2023/07/05 10:17:11;;;;;;;9.63;7.67;;;18.80;1.00;;;;;;5071941;28;20458;-68
2023/07/05 10:19:48;;;;;;;10.57;7.13;;;18.90;1.00;;;;;;5093583;28;20411;-68
2023/07/05 10:22:31;;;;;;;8.60;7.30;;;18.80;99.90;;;;;;5091255;28;20415;-68
2023/07/05 10:25:03;;;;;;;8.53;7.17;;;18.60;99.90;;;;;;5074982;28;20489;-76
2023/07/05 10:27:35;;;;;;;7.10;6.40;;;18.70;99.90;;;;;;5093550;28;20435;-69
2023/07/05 10:30:51;;;;;;;8.37;7.50;;;18.50;99.90;;;;;;5093340;28;20443;-74
2023/07/05 10:33:28;;;;;;;7.50;6.77;;;18.30;99.90;;;;;;5079454;28;20460;-69
2023/07/05 10:36:05;;;;;;;7.53;4.67;;;17.90;99.90;;;;;;5073189;28;20470;-73
2023/07/05 10:38:46;;;;;;;12.33;4.10;;;17.60;99.90;;;;;;5073328;28;20932;-74
2023/07/05 10:41:29;;;;;;;5.07;4.13;;;17.70;95.00;;;;;;5054414;28;20412;-76
2023/07/05 10:44:06;;;;;;;3.60;3.30;;;18.40;95.10;;;;;;5054476;28;21047;-70
2023/07/05 10:46:35;;;;;;;4.20;3.20;;;19.20;20.60;;;;;;5073479;28;20912;-71
2023/07/05 10:49:04;;;;;;;3.20;2.90;;;19.90;1.00;;;;;;5089460;28;20846;-68
2023/07/05 10:51:35;;;;;;;3.67;3.37;;;20.40;1.00;;;;;;5092003;28;20764;-76
2023/07/05 10:54:19;;;;;;;4.43;3.33;;;20.80;1.00;;;;;;5093131;28;20459;-71
2023/07/05 10:56:47;;;;;;;3.17;2.90;;;21.10;1.00;;;;;;5093185;28;20407;-69
2023/07/05 10:59:13;;;;;;;3.67;3.33;;;21.50;1.00;;;;;;5093147;28;20408;-70
2023/07/05 11:01:48;;;;;;;3.50;3.20;;;21.70;1.00;;;;;;5088297;28;20443;-74
2023/07/05 11:04:22;;;;;;;3.20;3.00;;;21.90;1.00;;;;;;5071534;28;20447;-73
2023/07/05 11:06:50;;;;;;;3.33;3.10;;;22.00;1.00;;;;;;5054255;28;20478;-69
2023/07/05 11:09:18;;;;;;;3.50;3.00;;;22.10;1.00;;;;;;5082011;28;20443;-72
2023/07/05 11:11:53;;;;;;;3.23;2.80;;;22.20;99.90;;;;;;5092122;28;21149;-74
2023/07/05 11:14:21;;;;;;;4.00;3.57;;;22.10;99.90;;;;;;5092895;28;20517;-69
2023/07/05 11:16:47;;;;;;;3.43;3.10;;;22.20;99.90;;;;;;5076059;28;20432;-73
2023/07/05 11:19:20;;;;;;;3.83;3.43;;;22.30;99.90;;;;;;5091184;28;20430;-71
2023/07/05 11:21:50;;;;;;;3.30;3.00;;;21.90;99.90;;;;;;5091530;28;20400;-69
2023/07/05 11:24:31;;;;;;;4.67;2.70;;;21.30;99.90;;;;;;5092691;28;20455;-72
2023/07/05 11:26:58;;;;;;;3.27;2.97;;;20.70;99.90;;;;;;5082356;28;20470;-71
2023/07/05 11:33:04;;;;;;;7.13;2.93;;;19.90;99.90;;;;;;5074359;28;20983;-74
2023/07/05 11:35:45;;;;;;;3.50;2.67;;;19.90;99.90;;;;;;5072413;28;20409;-74
2023/07/05 11:38:37;;;;;;;3.73;3.07;;;19.60;99.90;;;;;;5072432;28;20401;-70
2023/07/05 11:41:36;;;;;;;2.53;2.33;;;19.40;99.90;;;;;;5071624;28;20499;-68
2023/07/05 11:44:31;;;;;;;4.53;3.03;;;19.30;99.90;;;;;;5081604;28;20959;-70
2023/07/05 11:46:58;;;;;;;2.90;2.50;;;20.20;99.90;;;;;;5063771;28;20425;-68
2023/07/05 11:49:34;;;;;;;3.53;2.53;;;20.40;99.90;;;;;;5074384;28;20411;-73
2023/07/05 11:52:21;;;;;;;2.53;2.33;;;20.10;99.90;;;;;;5091654;28;20399;-72
2023/07/05 11:55:09;;;;;;;2.83;2.63;;;19.90;99.90;;;;;;5082658;28;20468;-72
2023/07/05 11:57:58;;;;;;;4.67;3.67;;;19.80;99.90;;;;;;5072173;28;20405;-73
2023/07/05 12:00:30;;;;;;;4.80;3.60;;;20.10;99.90;;;;;;5070681;28;20469;-71
2023/07/05 12:03:21;;;;;;;3.33;3.03;;;19.80;99.90;;;;;;5073107;28;20439;-68
2023/07/05 12:06:21;;;;;;;6.13;2.77;;;19.60;99.90;;;;;;5071764;28;20731;-68
2023/07/05 12:08:55;;;;;;;2.73;2.53;;;19.30;99.90;;;;;;5031707;28;20416;-68
2023/07/05 12:11:59;;;;;;;3.00;2.37;;;19.10;99.90;;;;;;5071442;28;20774;-73
2023/07/05 12:14:26;;;;;;;2.43;1.90;;;19.30;99.90;;;;;;5011804;28;20469;-68
2023/07/05 12:20:56;;;;;;;2.90;1.73;;;19.80;99.90;;;;;;4953841;29;20471;-72
2023/07/05 12:23:24;;;;;;;2.17;2.07;;;19.90;99.90;;;;;;5025594;28;20493;-68
2023/07/05 12:25:53;;;;;;;2.80;2.07;;;20.00;99.90;;;;;;5065316;28;20501;-67
2023/07/05 12:28:25;;;;;;;3.33;2.33;;;19.90;99.90;;;;;;5095919;28;20426;-70
2023/07/05 12:30:59;;;;;;;2.90;1.27;;;19.80;99.90;;;;;;5091717;28;20469;-68
2023/07/05 12:33:27;;;;;;;2.33;1.60;;;19.50;99.90;;;;;;5075435;28;20816;-69
2023/07/05 12:36:11;;;;;;;2.10;1.90;;;19.20;99.90;;;;;;5074915;28;20917;-70
2023/07/05 12:38:40;;;;;;;2.80;1.50;;;18.80;99.90;;;;;;5075364;28;20454;-72
2023/07/05 12:41:13;;;;;;;1.93;1.73;;;18.70;99.90;;;;;;5074785;28;20403;-73
2023/07/05 12:43:40;;;;;;;2.60;2.07;;;18.90;99.90;;;;;;5074687;28;20452;-67
2023/07/05 12:46:08;;;;;;;2.10;1.90;;;19.50;99.90;;;;;;5059585;28;20941;-68
2023/07/05 12:48:44;;;;;;;;;;;;;;;;;;;;;
2023/07/05 12:51:10;;;;;;;5.43;1.60;;;20.00;99.90;;;;;;5092858;28;20435;-73
2023/07/05 12:53:39;;;;;;;5.77;2.10;;;19.80;99.90;;;;;;5094679;28;20542;-70
2023/07/05 12:56:31;;;;;;;4.67;1.40;;;19.70;99.90;;;;;;5077296;28;20181;-72
2023/07/05 12:59:06;;;;;;;6.87;2.63;;;19.50;99.90;;;;;;5095123;28;20446;-69
2023/07/05 13:01:54;;;;;;;3.13;1.80;;;19.00;99.90;;;;;;5080082;28;20481;-71
2023/07/05 13:04:20;;;;;;;3.97;1.93;;;19.00;99.90;;;;;;5057055;28;20451;-74
2023/07/05 13:06:52;;;;;;;2.23;1.60;;;19.60;99.90;;;;;;5074737;28;20440;-73
2023/07/05 13:09:28;;;;;;;2.07;1.80;;;19.70;99.90;;;;;;5074938;28;20408;-69
2023/07/05 13:11:59;;;;;;;2.20;1.93;;;19.50;99.90;;;;;;5066192;28;20546;-66
2023/07/05 13:14:28;;;;;;;1.93;1.60;;;19.90;99.90;;;;;;5074619;28;20460;-66
2023/07/05 13:16:57;;;;;;;3.63;2.10;;;20.50;99.90;;;;;;5094105;28;20510;-66
2023/07/05 13:19:49;;;;;;;2.80;1.63;;;20.50;99.90;;;;;;5093190;28;20506;-68
2023/07/05 13:22:27;;;;;;;3.20;1.70;;;20.20;99.90;;;;;;5094067;28;20434;-65
2023/07/05 13:24:55;;;;;;;5.03;2.20;;;21.00;99.90;;;;;;5094874;28;20442;-75
2023/07/05 13:27:30;;;;;;;2.57;1.70;;;21.50;99.90;;;;;;5094307;28;20404;-69
2023/07/05 13:30:09;;;;;;;3.20;1.40;;;21.90;99.90;;;;;;5090121;28;20411;-73
2023/07/05 13:32:40;;;;;;;2.07;1.87;;;21.20;99.90;;;;;;5073749;28;20404;-68
2023/07/05 13:38:34;;;;;;;2.50;1.43;;;19.90;99.90;;;;;;5079389;28;20387;-73
2023/07/05 13:41:03;;;;;;;2.50;1.67;;;19.40;99.90;;;;;;5093570;28;20858;-72
2023/07/05 13:43:52;;;;;;;3.30;1.93;;;19.00;99.90;;;;;;5094493;28;20419;-68
2023/07/05 13:46:18;;;;;;;6.87;1.63;;;18.70;99.90;;;;;;5060422;28;20511;-70